الصفحة الرئيسية
METAR-TAF:

METAR-TAF

مطار :

سيول-سيونغنام, كوريا الجنوبية

دائرة عرض: 37-26N, خط طول: 127-07E, ارتفاع: 20 متر

مراقبة الطقس الحالي

ريح 13 عقدة من الجنوب الشرقي
درجة الحرارة 28°درجة مئوية
الرطوبة 70%
ضغط 1011 hPa
الرؤية: 9000 متر
غيوم مفككة على ارتفاع 3000 قدم
ملبد بالغيوم على ارتفاع 6000 قدم
مطر خفيف, غشاء

METAR: RKSM 0543Z 13013KT 9000 -RA BR BKN030 OVC060 28/22 A2984 RMK CIG030

زمن: 15:05 (06:05 UTC)

توقعات

تاريخ ووقت الإصدار 1ساعة و 5 دقيقة قبل الساعة 05:00UTC
التوقعات صالحة من16 الساعة 06 UTC إلى 17 الساعة 12 UTC
ريح 6 عقدة من الجنوب
الرؤية 10 كم أو أكثر
غيوم مفككة على ارتفاع 3000 قدم
غيوم مفككة على ارتفاع 20000 قدم
أصبح
من 16 الساعة 08 UTC إلى 16 الساعة 09 UTC
ريح 4 عقدة من الجنوب تتزايد حتى 14 عقدة
الرؤية: 4800 متر
غيوم مفككة على ارتفاع 1500 قدم
ملبد بالغيوم على ارتفاع 3000 قدم
مطر خفيف, غشاء,

TAF: RKSM 160500Z 1606/1712 18006KT 9999 BKN030 BKN200 BECMG 1608/1609 18004G14KT 4800 -RA BR BKN015 OVC030 TN24/1621Z TX27/1706Z

أرصاد الطقس والتوقعات من أكثر من 4000 مطار (تقارير الطقس للمطار METAR والتنبؤ بالطقس بالمطارTAF).

المحطات المتاحة هي النقط الصفراء والحمراء على الخريطة.

حرك المؤشر فوق النقطة لمعرفة اسم المحطة.

ثم انقر لمعرفة أرصاد وتوقعات الطقس.

لتغيير الخارطة: اضغط على الأزرار الخضراء مع رمز الصليب الأسود للتكبير. على الزر الأخضر مع شرطة للتصغير، أو على الأسهم الخضراء للخرائط المجاورة.


METAR-TAF: